This is the latest recevied weather packets stored in our database for station/object CA3EAP-13. If no packets are shown the sender has not sent any weather packets the latest 10 day(s).
| Time | Temp. | Humidity | Pressure | Rain* | Wind** | Luminosity | Snow |
|---|---|---|---|---|---|---|---|
| 1777871705 | 18.89° C | 40% | 1015.7 hPa | - | - | - | - |
| 1777871105 | 18.89° C | 39% | 1015.7 hPa | - | - | - | - |
| 1777870505 | 18.89° C | 38% | 1015.6 hPa | - | - | - | - |
| 1777869905 | 18.89° C | 38% | 1015.5 hPa | - | - | - | - |
| 1777869305 | 18.89° C | 37% | 1015.6 hPa | - | - | - | - |
| 1777868705 | 18.89° C | 37% | 1015.6 hPa | - | - | - | - |
| 1777868105 | 19.44° C | 36% | 1015.3 hPa | - | - | - | - |
| 1777867505 | 19.44° C | 35% | 1015.5 hPa | - | - | - | - |
| 1777866905 | 19.44° C | 35% | 1015.3 hPa | - | - | - | - |
| 1777865705 | 20° C | 33% | 1015.3 hPa | - | - | - | - |
| 1777865105 | 20° C | 33% | 1015.4 hPa | - | - | - | - |
| 1777864505 | 20° C | 31% | 1015.7 hPa | - | - | - | - |
| 1777863305 | 20° C | 31% | 1015.6 hPa | - | - | - | - |
| 1777847105 | 22.22° C | 29% | 1014.6 hPa | - | - | - | - |
| 1777846505 | 22.78° C | 28% | 1014.3 hPa | - | - | - | - |
| 1777844705 | 23.33° C | 27% | 1013.8 hPa | - | - | - | - |
| 1777844105 | 23.89° C | 27% | 1013.7 hPa | - | - | - | - |
| 1777842305 | 23.89° C | 27% | 1013.4 hPa | - | - | - | - |
| 1777841105 | 23.89° C | 25% | 1013.2 hPa | - | - | - | - |
| 1777840505 | 23.89° C | 25% | 1013.1 hPa | - | - | - | - |
| 1777839308 | 23.89° C | 23% | 1013 hPa | - | - | - | - |
| 1777837505 | 24.44° C | 27% | 1012.9 hPa | - | - | - | - |
| 1777828505 | 23.89° C | 31% | 1013.6 hPa | - | - | - | - |
| 1777826705 | 23.33° C | 35% | 1014.1 hPa | - | - | - | - |
| 1777824905 | 22.78° C | 37% | 1014.5 hPa | - | - | - | - |
* Rain since midnight (hover to see other rain measurements)
** Current wind speed in m/s (hover to see current wind gust speed)